createdAt,value
2019-01-20T07:02:46.375Z,33.13
2019-01-20T07:05:14.925Z,36.10
2019-01-20T07:07:44.212Z,32.50
2019-01-20T07:10:13.504Z,37.00
2019-01-20T07:12:41.722Z,33.92
2019-01-20T07:15:17.373Z,34.40
2019-01-20T07:17:45.651Z,34.00
2019-01-20T07:20:13.868Z,40.88
2019-01-20T07:22:42.302Z,41.77
2019-01-20T07:25:10.752Z,35.25
2019-01-20T07:27:39.051Z,36.83
2019-01-20T07:30:09.941Z,34.13
2019-01-20T07:32:37.653Z,34.30
2019-01-20T07:35:06.782Z,38.00
2019-01-20T07:37:34.950Z,35.63
2019-01-20T07:40:04.268Z,38.25
2019-01-20T07:42:32.515Z,37.05
2019-01-20T07:45:02.271Z,36.60
2019-01-20T07:47:34.227Z,38.65
2019-01-20T07:50:03.480Z,35.13
2019-01-20T07:52:31.656Z,33.23
2019-01-20T07:55:03.331Z,35.28
2019-01-20T07:57:31.609Z,36.00
2019-01-20T07:59:59.825Z,31.65
2019-01-20T08:02:28.430Z,36.38
2019-01-20T08:04:56.727Z,35.65
2019-01-20T08:07:24.773Z,37.73
2019-01-20T08:09:53.288Z,38.40
2019-01-20T08:12:23.649Z,36.80
2019-01-20T08:14:51.468Z,39.45
2019-01-20T08:17:20.552Z,33.63
2019-01-20T08:19:48.572Z,35.10
2019-01-20T08:22:16.875Z,38.10
2019-01-20T08:24:46.213Z,40.50
2019-01-20T08:27:14.318Z,38.05
2019-01-20T08:29:42.838Z,34.08
2019-01-20T08:32:10.898Z,32.08
2019-01-20T08:34:39.773Z,33.42
2019-01-20T08:37:08.031Z,34.25
2019-01-20T08:39:36.353Z,36.88
2019-01-20T08:42:04.316Z,43.48
2019-01-20T08:44:42.282Z,39.60
2019-01-20T08:47:38.581Z,44.88
2019-01-20T08:50:15.463Z,45.25
2019-01-20T08:52:46.091Z,47.33
2019-01-20T08:55:14.258Z,48.50
2019-01-20T08:57:42.631Z,44.13
2019-01-20T09:00:14.224Z,42.33
2019-01-20T09:02:44.180Z,44.00
2019-01-20T09:05:13.291Z,43.42
2019-01-20T09:07:41.543Z,41.60
2019-01-20T09:10:14.567Z,47.30
2019-01-20T09:12:42.919Z,49.20
2019-01-20T09:15:11.436Z,47.65
2019-01-20T09:17:39.734Z,47.43
2019-01-20T09:20:08.495Z,46.85
2019-01-20T09:22:36.695Z,47.50
2019-01-20T09:25:06.155Z,45.52
2019-01-20T09:27:34.501Z,47.98
2019-01-20T09:30:03.992Z,45.38
2019-01-20T09:32:32.070Z,45.08
2019-01-20T09:35:00.286Z,51.58
2019-01-20T09:37:28.490Z,46.45
2019-01-20T09:39:58.359Z,51.92
2019-01-20T09:42:26.908Z,51.30
2019-01-20T09:44:55.065Z,44.88
2019-01-20T09:47:23.068Z,43.55
2019-01-20T09:49:53.249Z,43.10
2019-01-20T09:52:21.340Z,40.78
2019-01-20T09:54:49.606Z,41.88
2019-01-20T09:57:17.924Z,42.27
2019-01-20T09:59:46.263Z,46.75
2019-01-20T10:02:14.553Z,45.25
2019-01-20T10:04:42.404Z,44.05
2019-01-20T10:07:10.811Z,45.75
2019-01-20T10:09:39.084Z,47.27
2019-01-20T10:12:07.278Z,47.20
2019-01-20T10:14:35.399Z,49.90
2019-01-20T10:17:03.583Z,45.80
2019-01-20T10:19:31.803Z,48.75
2019-01-20T10:22:00.181Z,44.50
2019-01-20T10:24:28.241Z,46.35
2019-01-20T10:26:56.472Z,44.50
2019-01-20T10:29:24.599Z,44.05
2019-01-20T10:31:53.956Z,45.75
2019-01-20T10:34:22.028Z,44.75
2019-01-20T10:36:58.676Z,46.37
2019-01-20T10:39:33.024Z,47.20
2019-01-20T10:42:08.836Z,46.08
2019-01-20T10:44:38.984Z,45.20
2019-01-20T10:47:07.200Z,44.03
2019-01-20T10:49:36.608Z,47.23
2019-01-20T10:52:09.344Z,44.90
2019-01-20T10:54:45.918Z,45.98
2019-01-20T10:57:14.160Z,44.85
2019-01-20T10:59:42.403Z,48.45
2019-01-20T11:02:10.356Z,46.70
2019-01-20T11:04:38.496Z,48.20
2019-01-20T11:07:06.511Z,46.35
2019-01-20T11:09:34.832Z,47.13
2019-01-20T11:12:02.857Z,50.00
2019-01-20T11:15:00.381Z,47.83
2019-01-20T11:17:52.885Z,49.63
2019-01-20T11:20:45.882Z,44.73
2019-01-20T11:23:41.957Z,47.70
2019-01-20T11:26:36.243Z,45.15
2019-01-20T11:29:29.297Z,46.33
2019-01-20T11:32:24.472Z,46.88
2019-01-20T11:35:19.563Z,46.10
2019-01-20T11:38:14.007Z,44.00
2019-01-20T11:41:07.875Z,44.03
2019-01-20T11:43:58.518Z,44.60
2019-01-20T11:46:54.454Z,45.35
2019-01-20T11:49:37.552Z,44.50
2019-01-20T11:52:19.951Z,44.25
2019-01-20T11:55:02.953Z,43.75
2019-01-20T11:57:46.189Z,41.18
2019-01-20T12:00:49.787Z,38.25
2019-01-20T12:03:37.319Z,37.78
2019-01-20T12:06:21.676Z,37.10
2019-01-20T12:09:07.475Z,38.45
2019-01-20T12:11:52.208Z,37.48
2019-01-20T12:14:26.878Z,35.83
2019-01-20T12:17:07.231Z,36.00
2019-01-20T12:19:45.417Z,44.55
2019-01-20T12:22:24.078Z,36.60
2019-01-20T12:25:04.980Z,35.55
2019-01-20T12:27:40.983Z,49.90
2019-01-20T12:30:58.125Z,60.75
2019-01-20T12:33:44.615Z,37.03
2019-01-20T12:36:39.729Z,36.30
2019-01-20T12:39:22.345Z,38.35
2019-01-20T12:42:06.537Z,36.00
2019-01-20T12:44:35.268Z,33.53
2019-01-20T12:47:04.834Z,38.30
2019-01-20T12:49:34.007Z,46.83
2019-01-20T12:52:02.691Z,44.05
2019-01-20T12:54:31.713Z,42.93
2019-01-20T12:57:00.164Z,37.10
2019-01-20T12:59:28.780Z,40.03
2019-01-20T13:02:00.710Z,41.18
2019-01-20T13:04:29.246Z,40.50
2019-01-20T13:07:07.577Z,43.55
2019-01-20T13:09:36.310Z,43.55
2019-01-20T13:12:04.905Z,44.60
2019-01-20T13:14:38.969Z,41.83
2019-01-20T13:17:04.928Z,41.33
2019-01-20T13:19:33.668Z,45.95
2019-01-20T13:22:03.670Z,42.33
2019-01-20T13:24:33.331Z,42.15
2019-01-20T13:27:01.468Z,43.40
2019-01-20T13:29:30.942Z,44.05
2019-01-20T13:31:59.224Z,42.38
2019-01-20T13:34:28.043Z,42.70
2019-01-20T13:36:56.084Z,41.33
2019-01-20T13:39:24.821Z,44.13
2019-01-20T13:42:34.921Z,43.52
2019-01-20T13:45:03.273Z,42.88
2019-01-20T13:47:32.640Z,47.30
2019-01-20T13:50:01.315Z,42.38
2019-01-20T13:52:30.360Z,42.50
2019-01-20T13:54:59.035Z,40.20
2019-01-20T13:57:27.838Z,40.53
2019-01-20T13:59:55.992Z,44.45
2019-01-20T14:02:24.318Z,40.55
2019-01-20T14:04:52.836Z,42.17
2019-01-20T14:07:21.417Z,37.75
2019-01-20T14:09:51.127Z,41.30
2019-01-20T14:12:19.603Z,39.73
2019-01-20T14:14:53.843Z,40.10
2019-01-20T14:17:20.384Z,39.88
2019-01-20T14:19:48.617Z,43.70
2019-01-20T14:22:16.768Z,39.67
2019-01-20T14:24:44.941Z,40.63
2019-01-20T14:27:13.260Z,40.33
2019-01-20T14:29:42.998Z,39.20
2019-01-20T14:32:11.128Z,38.20
2019-01-20T14:34:39.371Z,36.60
2019-01-20T14:37:08.096Z,38.55
2019-01-20T14:39:36.433Z,37.42
2019-01-20T14:42:04.744Z,39.08
2019-01-20T14:44:33.804Z,41.20
2019-01-20T14:47:01.917Z,38.90
2019-01-20T14:49:30.057Z,37.58
2019-01-20T14:51:58.177Z,36.40
2019-01-20T14:54:26.392Z,38.98
2019-01-20T14:56:57.008Z,38.30
2019-01-20T14:59:25.204Z,41.35
2019-01-20T15:01:53.293Z,41.48
2019-01-20T15:04:21.367Z,49.03
2019-01-20T15:06:49.446Z,52.20
2019-01-20T15:09:17.637Z,55.07
2019-01-20T15:11:45.856Z,50.30
2019-01-20T15:14:14.076Z,48.23
2019-01-20T15:16:42.209Z,52.43
2019-01-20T15:19:10.548Z,53.25
2019-01-20T15:21:38.656Z,50.80
2019-01-20T15:24:06.798Z,52.35
2019-01-20T15:26:35.039Z,48.78
2019-01-20T15:29:03.305Z,53.90
2019-01-20T15:31:31.370Z,53.95
2019-01-20T15:33:59.528Z,53.92
2019-01-20T15:36:27.839Z,55.55
2019-01-20T15:38:55.973Z,54.65
2019-01-20T15:41:24.276Z,55.63
2019-01-20T15:43:52.539Z,54.50
2019-01-20T15:46:20.722Z,58.50
2019-01-20T15:49:09.613Z,59.38
2019-01-20T15:52:02.870Z,56.02
2019-01-20T15:54:53.630Z,55.80
2019-01-20T15:57:47.191Z,55.70
2019-01-20T16:00:42.970Z,60.17
2019-01-20T16:03:34.062Z,54.75
2019-01-20T16:06:25.360Z,61.30
2019-01-20T16:09:15.249Z,59.65
2019-01-20T16:12:04.062Z,63.98
2019-01-20T16:14:49.814Z,66.85
2019-01-20T16:17:37.144Z,64.93
2019-01-20T16:20:22.875Z,68.10
2019-01-20T16:23:05.718Z,73.83
2019-01-20T16:25:50.764Z,63.20
2019-01-20T16:28:36.058Z,66.75
2019-01-20T16:31:20.477Z,71.57
2019-01-20T16:34:04.468Z,71.45
2019-01-20T16:36:50.259Z,73.00
2019-01-20T16:39:39.378Z,74.58
2019-01-20T16:42:15.148Z,67.95
2019-01-20T16:44:50.822Z,72.32
2019-01-20T16:47:41.231Z,69.75
2019-01-20T16:50:47.849Z,71.33
2019-01-20T16:53:33.411Z,70.90
2019-01-20T16:56:18.745Z,70.52
2019-01-20T16:58:56.610Z,70.57
2019-01-20T17:01:41.513Z,71.60
2019-01-20T17:04:15.676Z,69.05
2019-01-20T17:07:12.426Z,64.97
2019-01-20T17:09:45.075Z,66.02
2019-01-20T17:12:41.687Z,66.85
2019-01-20T17:16:00.204Z,65.42
2019-01-20T17:18:56.048Z,73.28
2019-01-20T17:21:50.318Z,70.52
2019-01-20T17:24:45.875Z,67.17
2019-01-20T17:27:38.767Z,64.80
2019-01-20T17:30:36.097Z,66.22
2019-01-20T17:33:30.937Z,69.60
2019-01-20T17:36:26.934Z,67.70
2019-01-20T17:39:23.866Z,62.93
2019-01-20T17:43:41.758Z,65.23
2019-01-20T17:45:23.092Z,71.02
2019-01-20T17:48:15.328Z,68.53
2019-01-20T17:50:57.727Z,70.20
2019-01-20T17:53:43.509Z,73.15
2019-01-20T17:56:34.287Z,69.40
2019-01-20T17:59:23.221Z,71.25
2019-01-20T18:02:19.692Z,64.40
2019-01-20T18:05:02.792Z,65.37
2019-01-20T18:07:59.087Z,68.02
2019-01-20T18:10:51.589Z,65.42
2019-01-20T18:13:33.083Z,69.90
2019-01-20T18:16:15.658Z,69.10
2019-01-20T18:18:56.680Z,70.12
2019-01-20T18:21:42.246Z,68.83
2019-01-20T18:24:48.335Z,64.10
2019-01-20T18:27:41.409Z,64.25
2019-01-20T18:30:32.957Z,68.57
2019-01-20T18:33:35.158Z,72.95
2019-01-20T18:36:18.267Z,65.12
2019-01-20T18:38:57.311Z,67.60
2019-01-20T18:41:57.198Z,67.40
2019-01-20T18:44:57.331Z,69.60
2019-01-20T18:47:54.624Z,66.10
2019-01-20T18:51:14.200Z,74.32
2019-01-20T18:54:09.177Z,72.22
2019-01-20T18:57:18.936Z,71.17
2019-01-20T19:00:12.205Z,72.85
2019-01-20T19:03:03.987Z,72.10
2019-01-20T19:06:04.763Z,73.72
2019-01-20T19:08:57.543Z,74.40
2019-01-20T19:11:40.858Z,71.87
2019-01-20T19:14:52.631Z,74.67
2019-01-20T19:17:59.090Z,68.65
2019-01-20T19:20:55.979Z,74.80
2019-01-20T19:23:54.260Z,78.78
2019-01-20T19:26:49.839Z,74.00
2019-01-20T19:29:45.844Z,70.17
2019-01-20T19:32:42.220Z,70.15
2019-01-20T19:35:32.888Z,70.80
2019-01-20T19:38:26.020Z,74.17
2019-01-20T19:41:22.232Z,73.25
2019-01-20T19:44:13.952Z,72.90
2019-01-20T19:47:04.308Z,72.12
2019-01-20T19:49:51.199Z,75.30
2019-01-20T19:52:40.985Z,73.50
2019-01-20T19:55:37.759Z,70.97
2019-01-20T19:58:25.253Z,72.42
2019-01-20T20:01:17.402Z,74.15
2019-01-20T20:04:03.812Z,73.07
2019-01-20T20:06:57.209Z,74.97
2019-01-20T20:09:51.883Z,70.78
2019-01-20T20:12:41.802Z,70.70
2019-01-20T20:15:36.146Z,67.17
2019-01-20T20:18:32.703Z,71.92
2019-01-20T20:21:29.132Z,74.50
2019-01-20T20:24:25.236Z,71.62
2019-01-20T20:27:13.336Z,70.00
2019-01-20T20:30:04.727Z,75.45
2019-01-20T20:32:57.877Z,72.55
2019-01-20T20:35:47.942Z,73.75
2019-01-20T20:38:49.349Z,77.87
2019-01-20T20:41:43.797Z,76.55
2019-01-20T20:44:33.648Z,74.45
2019-01-20T20:47:28.785Z,75.60
2019-01-20T20:50:20.707Z,75.97
2019-01-20T20:53:07.168Z,77.35
2019-01-20T20:55:57.049Z,72.92
2019-01-20T20:58:53.333Z,77.30
2019-01-20T21:01:42.590Z,76.85
2019-01-20T21:04:23.988Z,75.52
2019-01-20T21:07:18.588Z,75.12
2019-01-20T21:10:09.113Z,73.20
2019-01-20T21:13:01.414Z,82.77
2019-01-20T21:15:43.613Z,79.87
2019-01-20T21:18:33.446Z,85.00
2019-01-20T21:22:21.705Z,80.92
2019-01-20T21:24:28.143Z,77.22
2019-01-20T21:27:05.824Z,76.85
2019-01-20T21:30:05.430Z,74.77
2019-01-20T21:32:52.159Z,73.57
2019-01-20T21:35:37.831Z,79.05
2019-01-20T21:38:26.752Z,73.70
2019-01-20T21:40:58.626Z,75.10
2019-01-20T21:43:26.744Z,74.72
2019-01-20T21:45:54.887Z,75.78
2019-01-20T21:48:26.828Z,74.95
2019-01-20T21:50:59.996Z,71.07
2019-01-20T21:53:28.499Z,72.70
2019-01-20T21:55:56.830Z,72.10
2019-01-20T21:58:26.273Z,72.37
2019-01-20T22:01:10.166Z,70.00
2019-01-20T22:03:43.663Z,69.77
2019-01-20T22:06:15.723Z,68.07
2019-01-20T22:08:58.005Z,67.47
2019-01-20T22:11:28.263Z,69.30
2019-01-20T22:14:02.611Z,75.57
2019-01-20T22:16:39.635Z,71.20
2019-01-20T22:19:11.575Z,72.03
2019-01-20T22:21:50.057Z,66.30
2019-01-20T22:24:28.635Z,73.28
2019-01-20T22:26:57.867Z,66.17
2019-01-20T22:29:31.115Z,66.47
2019-01-20T22:32:03.646Z,70.22
2019-01-20T22:34:33.772Z,70.10
2019-01-20T22:37:16.044Z,72.10
2019-01-20T22:39:50.413Z,73.15
2019-01-20T22:42:18.375Z,70.65
2019-01-20T22:44:52.283Z,70.15
2019-01-20T22:47:24.823Z,69.82
2019-01-20T22:49:53.292Z,69.30
2019-01-20T22:52:21.607Z,68.57
2019-01-20T22:54:49.755Z,73.60
2019-01-20T22:57:18.031Z,67.92
2019-01-20T22:59:46.343Z,69.77
2019-01-20T23:02:14.716Z,73.60
2019-01-20T23:04:42.790Z,71.10
2019-01-20T23:07:11.033Z,68.00
2019-01-20T23:09:39.316Z,70.52
2019-01-20T23:12:07.322Z,70.97
2019-01-20T23:14:35.552Z,69.92
2019-01-20T23:17:07.848Z,71.47
2019-01-20T23:19:33.672Z,69.60
2019-01-20T23:22:01.839Z,68.97
2019-01-20T23:24:29.977Z,72.53
2019-01-20T23:26:58.182Z,67.32
2019-01-20T23:29:27.507Z,70.57
2019-01-20T23:31:55.530Z,72.53
2019-01-20T23:34:23.739Z,65.20
2019-01-20T23:36:52.937Z,66.30
2019-01-20T23:39:21.098Z,69.45
2019-01-20T23:41:49.254Z,66.15
2019-01-20T23:44:17.452Z,69.35
2019-01-20T23:46:45.583Z,67.47
2019-01-20T23:49:15.490Z,65.55
2019-01-20T23:51:43.711Z,64.87
2019-01-20T23:54:12.880Z,69.22
2019-01-20T23:56:41.064Z,66.00
2019-01-20T23:59:09.272Z,63.50
